sensor_id;sensor_type;location;lat;lon;timestamp;pressure;altitude;pressure_sealevel;temperature;humidity
7105;BME280;3594;42.152;24.714;2023-06-22T00:01:58;61609.38;;;21.14;nan
7105;BME280;3594;42.152;24.714;2023-06-22T00:04:23;61551.09;;;21.37;nan
7105;BME280;3594;42.152;24.714;2023-06-22T00:06:49;61460.94;;;21.17;nan
7105;BME280;3594;42.152;24.714;2023-06-22T00:09:14;61466.47;;;21.26;nan
7105;BME280;3594;42.152;24.714;2023-06-22T00:11:40;61421.81;;;21.33;nan
7105;BME280;3594;42.152;24.714;2023-06-22T00:14:05;61533.88;;;21.07;nan
7105;BME280;3594;42.152;24.714;2023-06-22T00:16:34;61455.38;;;21.30;nan
7105;BME280;3594;42.152;24.714;2023-06-22T00:19:00;61417.53;;;21.31;nan
7105;BME280;3594;42.152;24.714;2023-06-22T00:21:26;61430.09;;;21.26;nan
7105;BME280;3594;42.152;24.714;2023-06-22T00:23:52;61374.38;;;21.13;nan
7105;BME280;3594;42.152;24.714;2023-06-22T00:26:17;61568.09;;;21.01;nan
7105;BME280;3594;42.152;24.714;2023-06-22T00:28:43;61292.53;;;20.98;nan
7105;BME280;3594;42.152;24.714;2023-06-22T00:31:08;61359.69;;;21.00;nan
7105;BME280;3594;42.152;24.714;2023-06-22T00:33:34;61336.22;;;20.93;nan
7105;BME280;3594;42.152;24.714;2023-06-22T00:35:59;61427.00;;;20.63;nan
7105;BME280;3594;42.152;24.714;2023-06-22T00:38:24;61258.69;;;20.80;nan
7105;BME280;3594;42.152;24.714;2023-06-22T00:40:50;61253.25;;;20.77;nan
7105;BME280;3594;42.152;24.714;2023-06-22T00:43:15;61109.75;;;20.81;nan
7105;BME280;3594;42.152;24.714;2023-06-22T00:45:41;61174.34;;;20.83;nan
7105;BME280;3594;42.152;24.714;2023-06-22T00:48:07;61010.81;;;20.53;nan
7105;BME280;3594;42.152;24.714;2023-06-22T00:50:33;60634.59;;;19.42;nan
7105;BME280;3594;42.152;24.714;2023-06-22T00:53:00;60676.72;;;20.42;nan
7105;BME280;3594;42.152;24.714;2023-06-22T00:55:29;60583.72;;;20.54;nan
7105;BME280;3594;42.152;24.714;2023-06-22T00:57:55;60463.78;;;20.39;nan
7105;BME280;3594;42.152;24.714;2023-06-22T01:00:22;60073.97;;;20.22;nan
7105;BME280;3594;42.152;24.714;2023-06-22T01:02:50;60087.88;;;20.20;nan
7105;BME280;3594;42.152;24.714;2023-06-22T01:05:20;60041.38;;;20.23;nan
7105;BME280;3594;42.152;24.714;2023-06-22T01:10:21;60446.56;;;20.52;nan
7105;BME280;3594;42.152;24.714;2023-06-22T01:12:52;60717.28;;;20.36;nan
7105;BME280;3594;42.152;24.714;2023-06-22T01:15:28;60556.69;;;20.53;nan
7105;BME280;3594;42.152;24.714;2023-06-22T01:17:56;60578.75;;;20.16;nan
7105;BME280;3594;42.152;24.714;2023-06-22T01:20:23;60806.66;;;20.44;nan
7105;BME280;3594;42.152;24.714;2023-06-22T01:23:21;61057.75;;;20.55;nan
7105;BME280;3594;42.152;24.714;2023-06-22T01:25:59;61096.69;;;20.55;nan
7105;BME280;3594;42.152;24.714;2023-06-22T01:28:46;61095.94;;;20.41;nan
7105;BME280;3594;42.152;24.714;2023-06-22T01:31:16;61067.66;;;20.32;nan
7105;BME280;3594;42.152;24.714;2023-06-22T01:33:44;61084.94;;;20.33;nan
7105;BME280;3594;42.152;24.714;2023-06-22T01:36:11;61003.34;;;20.13;nan
7105;BME280;3594;42.152;24.714;2023-06-22T01:38:38;61015.63;;;19.87;nan
7105;BME280;3594;42.152;24.714;2023-06-22T01:41:04;61069.47;;;19.98;nan
7105;BME280;3594;42.152;24.714;2023-06-22T01:43:30;60856.84;;;19.98;nan
7105;BME280;3594;42.152;24.714;2023-06-22T01:45:56;60627.28;;;19.80;nan
7105;BME280;3594;42.152;24.714;2023-06-22T01:48:22;60375.09;;;19.70;nan
7105;BME280;3594;42.152;24.714;2023-06-22T01:50:49;60017.09;;;19.79;nan
7105;BME280;3594;42.152;24.714;2023-06-22T01:53:14;59689.19;;;19.73;nan
7105;BME280;3594;42.152;24.714;2023-06-22T01:55:40;59522.72;;;19.63;nan
7105;BME280;3594;42.152;24.714;2023-06-22T01:58:05;59255.41;;;19.36;nan
7105;BME280;3594;42.152;24.714;2023-06-22T02:00:37;59378.78;;;19.48;nan
7105;BME280;3594;42.152;24.714;2023-06-22T02:03:19;59136.63;;;19.61;nan
7105;BME280;3594;42.152;24.714;2023-06-22T02:05:52;58406.22;;;19.58;nan
7105;BME280;3594;42.152;24.714;2023-06-22T02:08:22;57613.88;;;19.56;nan
7105;BME280;3594;42.152;24.714;2023-06-22T02:10:50;56793.31;;;19.26;nan
7105;BME280;3594;42.152;24.714;2023-06-22T02:13:18;56265.53;;;19.13;nan
7105;BME280;3594;42.152;24.714;2023-06-22T02:15:45;54845.31;;;19.40;nan
7105;BME280;3594;42.152;24.714;2023-06-22T02:18:11;53810.09;;;19.39;nan
7105;BME280;3594;42.152;24.714;2023-06-22T02:20:38;52285.66;;;19.03;nan
7105;BME280;3594;42.152;24.714;2023-06-22T02:23:05;51630.44;;;19.09;nan
7105;BME280;3594;42.152;24.714;2023-06-22T02:25:32;44383.94;;;18.86;nan
7105;BME280;3594;42.152;24.714;2023-06-22T02:27:57;42096.50;;;19.07;nan
7105;BME280;3594;42.152;24.714;2023-06-22T02:30:23;39577.25;;;18.67;nan
7105;BME280;3594;42.152;24.714;2023-06-22T02:32:48;42260.47;;;19.25;nan
7105;BME280;3594;42.152;24.714;2023-06-22T02:35:13;42892.09;;;19.10;nan
7105;BME280;3594;42.152;24.714;2023-06-22T02:37:39;45681.69;;;19.09;nan
7105;BME280;3594;42.152;24.714;2023-06-22T02:40:08;46636.41;;;19.10;nan
7105;BME280;3594;42.152;24.714;2023-06-22T02:42:37;46886.00;;;19.36;nan
7105;BME280;3594;42.152;24.714;2023-06-22T02:45:03;46425.97;;;19.35;nan
7105;BME280;3594;42.152;24.714;2023-06-22T02:47:28;47666.84;;;19.15;nan
7105;BME280;3594;42.152;24.714;2023-06-22T02:49:54;48036.13;;;19.32;nan
7105;BME280;3594;42.152;24.714;2023-06-22T02:52:19;48305.41;;;19.33;nan
7105;BME280;3594;42.152;24.714;2023-06-22T02:54:44;49914.69;;;19.15;nan
7105;BME280;3594;42.152;24.714;2023-06-22T02:57:12;53618.72;;;19.58;nan
7105;BME280;3594;42.152;24.714;2023-06-22T02:59:40;57571.06;;;19.45;nan
7105;BME280;3594;42.152;24.714;2023-06-22T03:02:07;59435.97;;;19.76;nan
7105;BME280;3594;42.152;24.714;2023-06-22T03:04:33;60093.00;;;19.75;nan
7105;BME280;3594;42.152;24.714;2023-06-22T03:06:58;60979.78;;;20.29;nan
7105;BME280;3594;42.152;24.714;2023-06-22T03:09:27;61156.66;;;20.35;nan
7105;BME280;3594;42.152;24.714;2023-06-22T03:11:55;61442.75;;;21.17;nan
7105;BME280;3594;42.152;24.714;2023-06-22T03:14:21;61578.94;;;21.45;nan
7105;BME280;3594;42.152;24.714;2023-06-22T03:16:47;61535.88;;;21.58;nan
7105;BME280;3594;42.152;24.714;2023-06-22T03:19:12;61829.06;;;22.57;nan
7105;BME280;3594;42.152;24.714;2023-06-22T03:21:38;61831.53;;;22.89;nan
7105;BME280;3594;42.152;24.714;2023-06-22T03:24:05;61919.94;;;23.38;nan
7105;BME280;3594;42.152;24.714;2023-06-22T03:26:30;62007.63;;;23.84;nan
7105;BME280;3594;42.152;24.714;2023-06-22T03:28:56;62102.34;;;24.42;nan
7105;BME280;3594;42.152;24.714;2023-06-22T03:31:22;62178.53;;;24.63;nan
7105;BME280;3594;42.152;24.714;2023-06-22T03:33:48;62199.72;;;25.17;nan
7105;BME280;3594;42.152;24.714;2023-06-22T03:36:15;62606.22;;;25.92;nan
7105;BME280;3594;42.152;24.714;2023-06-22T03:38:48;62389.56;;;26.39;nan
7105;BME280;3594;42.152;24.714;2023-06-22T03:41:14;62654.19;;;26.76;nan
7105;BME280;3594;42.152;24.714;2023-06-22T03:43:40;62450.00;;;26.97;nan
7105;BME280;3594;42.152;24.714;2023-06-22T03:46:05;62868.44;;;27.75;nan
7105;BME280;3594;42.152;24.714;2023-06-22T03:48:31;62611.00;;;28.26;nan
7105;BME280;3594;42.152;24.714;2023-06-22T03:50:56;62848.34;;;28.61;nan
7105;BME280;3594;42.152;24.714;2023-06-22T03:53:22;62730.78;;;29.04;nan
7105;BME280;3594;42.152;24.714;2023-06-22T03:55:49;62933.97;;;29.88;nan
7105;BME280;3594;42.152;24.714;2023-06-22T03:58:16;63065.94;;;30.50;nan
7105;BME280;3594;42.152;24.714;2023-06-22T04:00:41;63107.69;;;30.29;nan
7105;BME280;3594;42.152;24.714;2023-06-22T04:03:07;62844.09;;;28.55;nan
7105;BME280;3594;42.152;24.714;2023-06-22T04:05:33;63279.94;;;31.69;nan
7105;BME280;3594;42.152;24.714;2023-06-22T04:07:58;63301.13;;;31.80;nan
7105;BME280;3594;42.152;24.714;2023-06-22T04:10:24;63431.72;;;32.18;nan
7105;BME280;3594;42.152;24.714;2023-06-22T04:12:49;63573.69;;;32.36;nan
7105;BME280;3594;42.152;24.714;2023-06-22T04:15:15;63362.44;;;32.13;nan
7105;BME280;3594;42.152;24.714;2023-06-22T04:17:40;63391.28;;;32.38;nan
7105;BME280;3594;42.152;24.714;2023-06-22T04:20:06;63315.53;;;32.21;nan
7105;BME280;3594;42.152;24.714;2023-06-22T04:22:32;63305.03;;;32.16;nan
7105;BME280;3594;42.152;24.714;2023-06-22T04:24:57;63284.81;;;32.38;nan
7105;BME280;3594;42.152;24.714;2023-06-22T04:27:22;63394.78;;;32.53;nan
7105;BME280;3594;42.152;24.714;2023-06-22T04:29:48;63454.47;;;32.96;nan
7105;BME280;3594;42.152;24.714;2023-06-22T04:32:17;63416.50;;;32.42;nan
7105;BME280;3594;42.152;24.714;2023-06-22T04:34:42;63519.63;;;32.47;nan
7105;BME280;3594;42.152;24.714;2023-06-22T04:37:08;63480.84;;;32.45;nan
7105;BME280;3594;42.152;24.714;2023-06-22T04:39:33;63455.34;;;32.55;nan
7105;BME280;3594;42.152;24.714;2023-06-22T04:41:59;63395.69;;;32.12;nan
7105;BME280;3594;42.152;24.714;2023-06-22T04:44:27;63383.94;;;32.11;nan
7105;BME280;3594;42.152;24.714;2023-06-22T04:46:57;63200.81;;;31.60;nan
7105;BME280;3594;42.152;24.714;2023-06-22T04:49:28;63200.22;;;31.47;nan
7105;BME280;3594;42.152;24.714;2023-06-22T04:52:05;63139.16;;;31.33;nan
7105;BME280;3594;42.152;24.714;2023-06-22T04:54:32;63185.44;;;31.25;nan
7105;BME280;3594;42.152;24.714;2023-06-22T04:57:01;63211.09;;;31.45;nan
7105;BME280;3594;42.152;24.714;2023-06-22T04:59:28;63231.78;;;31.40;nan
7105;BME280;3594;42.152;24.714;2023-06-22T05:01:59;63230.03;;;31.67;nan
7105;BME280;3594;42.152;24.714;2023-06-22T05:04:26;63282.38;;;31.50;nan
7105;BME280;3594;42.152;24.714;2023-06-22T05:06:53;63185.13;;;31.39;nan
7105;BME280;3594;42.152;24.714;2023-06-22T05:09:20;63190.16;;;31.25;nan
7105;BME280;3594;42.152;24.714;2023-06-22T05:11:46;63253.22;;;31.27;nan
7105;BME280;3594;42.152;24.714;2023-06-22T05:14:11;63283.63;;;31.19;nan
7105;BME280;3594;42.152;24.714;2023-06-22T05:16:37;63213.56;;;31.27;nan
7105;BME280;3594;42.152;24.714;2023-06-22T05:19:03;63235.00;;;31.13;nan
7105;BME280;3594;42.152;24.714;2023-06-22T05:21:30;63328.44;;;31.51;nan
7105;BME280;3594;42.152;24.714;2023-06-22T05:23:56;63291.72;;;31.93;nan
7105;BME280;3594;42.152;24.714;2023-06-22T05:26:28;63274.53;;;31.73;nan
7105;BME280;3594;42.152;24.714;2023-06-22T05:28:54;63264.19;;;30.92;nan
7105;BME280;3594;42.152;24.714;2023-06-22T05:31:20;63220.78;;;31.47;nan
7105;BME280;3594;42.152;24.714;2023-06-22T05:33:47;63234.94;;;30.74;nan
7105;BME280;3594;42.152;24.714;2023-06-22T05:36:13;63372.69;;;30.62;nan
7105;BME280;3594;42.152;24.714;2023-06-22T05:38:39;63204.59;;;30.93;nan
7105;BME280;3594;42.152;24.714;2023-06-22T05:41:04;63077.47;;;30.72;nan
7105;BME280;3594;42.152;24.714;2023-06-22T05:43:30;63204.22;;;30.84;nan
7105;BME280;3594;42.152;24.714;2023-06-22T05:45:56;63392.66;;;30.78;nan
7105;BME280;3594;42.152;24.714;2023-06-22T05:48:21;63307.63;;;30.28;nan
7105;BME280;3594;42.152;24.714;2023-06-22T05:50:47;63175.59;;;29.89;nan
7105;BME280;3594;42.152;24.714;2023-06-22T05:53:12;62915.16;;;29.11;nan
7105;BME280;3594;42.152;24.714;2023-06-22T05:55:37;62618.44;;;27.81;nan
7105;BME280;3594;42.152;24.714;2023-06-22T05:58:03;62621.63;;;27.70;nan
7105;BME280;3594;42.152;24.714;2023-06-22T06:00:29;62669.25;;;27.68;nan
7105;BME280;3594;42.152;24.714;2023-06-22T06:02:54;62561.75;;;27.59;nan
7105;BME280;3594;42.152;24.714;2023-06-22T06:05:20;62618.66;;;27.44;nan
7105;BME280;3594;42.152;24.714;2023-06-22T06:07:46;62625.59;;;27.62;nan
7105;BME280;3594;42.152;24.714;2023-06-22T06:10:11;62583.78;;;27.53;nan
7105;BME280;3594;42.152;24.714;2023-06-22T06:12:37;62592.06;;;27.74;nan
7105;BME280;3594;42.152;24.714;2023-06-22T06:15:03;62668.06;;;27.95;nan
7105;BME280;3594;42.152;24.714;2023-06-22T06:17:29;62670.72;;;28.06;nan
7105;BME280;3594;42.152;24.714;2023-06-22T06:19:54;62704.19;;;27.71;nan
7105;BME280;3594;42.152;24.714;2023-06-22T06:22:20;62653.03;;;27.75;nan
7105;BME280;3594;42.152;24.714;2023-06-22T06:24:47;62699.50;;;27.99;nan
7105;BME280;3594;42.152;24.714;2023-06-22T06:27:13;62631.31;;;27.67;nan
7105;BME280;3594;42.152;24.714;2023-06-22T06:29:39;62736.38;;;27.95;nan
7105;BME280;3594;42.152;24.714;2023-06-22T06:32:04;62721.91;;;28.31;nan
7105;BME280;3594;42.152;24.714;2023-06-22T06:34:30;62726.28;;;28.44;nan
7105;BME280;3594;42.152;24.714;2023-06-22T06:36:55;62753.19;;;28.56;nan
7105;BME280;3594;42.152;24.714;2023-06-22T06:39:21;62807.34;;;28.39;nan
7105;BME280;3594;42.152;24.714;2023-06-22T06:41:46;62779.38;;;28.61;nan
7105;BME280;3594;42.152;24.714;2023-06-22T06:44:12;62803.13;;;28.72;nan
7105;BME280;3594;42.152;24.714;2023-06-22T06:49:03;63091.50;;;29.31;nan
7105;BME280;3594;42.152;24.714;2023-06-22T06:51:28;62962.94;;;29.20;nan
7105;BME280;3594;42.152;24.714;2023-06-22T06:53:54;62902.50;;;29.55;nan
7105;BME280;3594;42.152;24.714;2023-06-22T06:56:19;62959.16;;;29.75;nan
7105;BME280;3594;42.152;24.714;2023-06-22T06:58:45;62918.72;;;29.76;nan
7105;BME280;3594;42.152;24.714;2023-06-22T07:01:14;62927.09;;;29.81;nan
7105;BME280;3594;42.152;24.714;2023-06-22T07:03:39;63030.97;;;30.26;nan
7105;BME280;3594;42.152;24.714;2023-06-22T07:06:05;63080.28;;;30.51;nan
7105;BME280;3594;42.152;24.714;2023-06-22T07:08:30;63343.16;;;30.57;nan
7105;BME280;3594;42.152;24.714;2023-06-22T07:10:56;63120.53;;;30.19;nan
7105;BME280;3594;42.152;24.714;2023-06-22T07:13:21;62980.97;;;29.55;nan
7105;BME280;3594;42.152;24.714;2023-06-22T07:15:47;63029.53;;;29.56;nan
7105;BME280;3594;42.152;24.714;2023-06-22T07:18:12;62860.66;;;29.41;nan
7105;BME280;3594;42.152;24.714;2023-06-22T07:20:38;62912.06;;;29.33;nan
7105;BME280;3594;42.152;24.714;2023-06-22T07:23:04;62953.69;;;29.45;nan
7105;BME280;3594;42.152;24.714;2023-06-22T07:25:30;62813.59;;;29.39;nan
7105;BME280;3594;42.152;24.714;2023-06-22T07:28:07;62962.38;;;29.75;nan
7105;BME280;3594;42.152;24.714;2023-06-22T07:30:33;62799.06;;;29.48;nan
7105;BME280;3594;42.152;24.714;2023-06-22T07:32:59;62926.16;;;29.71;nan
7105;BME280;3594;42.152;24.714;2023-06-22T07:35:29;63009.47;;;29.77;nan
7105;BME280;3594;42.152;24.714;2023-06-22T07:37:55;62933.66;;;29.90;nan
7105;BME280;3594;42.152;24.714;2023-06-22T07:40:20;62938.31;;;29.77;nan
7105;BME280;3594;42.152;24.714;2023-06-22T07:42:45;63066.38;;;29.88;nan
7105;BME280;3594;42.152;24.714;2023-06-22T07:45:13;62627.94;;;26.92;nan
7105;BME280;3594;42.152;24.714;2023-06-22T07:47:38;63101.03;;;29.98;nan
7105;BME280;3594;42.152;24.714;2023-06-22T07:50:04;62949.84;;;28.88;nan
7105;BME280;3594;42.152;24.714;2023-06-22T07:52:30;63324.53;;;30.50;nan
7105;BME280;3594;42.152;24.714;2023-06-22T07:54:56;63005.84;;;30.23;nan
7105;BME280;3594;42.152;24.714;2023-06-22T07:57:21;63064.03;;;30.69;nan
7105;BME280;3594;42.152;24.714;2023-06-22T07:59:46;63154.88;;;30.87;nan
7105;BME280;3594;42.152;24.714;2023-06-22T08:02:12;63276.66;;;30.85;nan
7105;BME280;3594;42.152;24.714;2023-06-22T08:04:38;63152.53;;;31.01;nan
7105;BME280;3594;42.152;24.714;2023-06-22T08:07:04;63183.31;;;31.02;nan
7105;BME280;3594;42.152;24.714;2023-06-22T08:09:32;63142.44;;;31.18;nan
7105;BME280;3594;42.152;24.714;2023-06-22T08:11:58;63259.13;;;31.11;nan
7105;BME280;3594;42.152;24.714;2023-06-22T08:14:27;63193.50;;;31.32;nan
7105;BME280;3594;42.152;24.714;2023-06-22T08:16:53;63191.31;;;31.37;nan
7105;BME280;3594;42.152;24.714;2023-06-22T08:19:18;63114.28;;;31.04;nan
7105;BME280;3594;42.152;24.714;2023-06-22T08:21:44;63149.16;;;30.93;nan
7105;BME280;3594;42.152;24.714;2023-06-22T08:24:09;63211.72;;;31.18;nan
7105;BME280;3594;42.152;24.714;2023-06-22T08:26:35;62611.31;;;27.05;nan
7105;BME280;3594;42.152;24.714;2023-06-22T08:29:03;63105.59;;;31.13;nan
7105;BME280;3594;42.152;24.714;2023-06-22T08:31:28;63211.88;;;31.25;nan
7105;BME280;3594;42.152;24.714;2023-06-22T08:33:54;63451.38;;;31.27;nan
7105;BME280;3594;42.152;24.714;2023-06-22T08:36:19;63149.84;;;31.40;nan
7105;BME280;3594;42.152;24.714;2023-06-22T08:38:45;63282.38;;;31.78;nan
7105;BME280;3594;42.152;24.714;2023-06-22T08:41:13;63368.44;;;31.93;nan
7105;BME280;3594;42.152;24.714;2023-06-22T08:43:38;63279.97;;;31.80;nan
7105;BME280;3594;42.152;24.714;2023-06-22T08:46:04;63328.44;;;31.95;nan
7105;BME280;3594;42.152;24.714;2023-06-22T08:48:29;63356.84;;;31.99;nan
7105;BME280;3594;42.152;24.714;2023-06-22T08:50:55;63384.00;;;32.07;nan
7105;BME280;3594;42.152;24.714;2023-06-22T08:53:20;63343.72;;;31.94;nan
7105;BME280;3594;42.152;24.714;2023-06-22T08:55:46;63254.00;;;31.85;nan
7105;BME280;3594;42.152;24.714;2023-06-22T08:58:11;63349.28;;;32.09;nan
7105;BME280;3594;42.152;24.714;2023-06-22T09:00:36;63279.28;;;31.84;nan
7105;BME280;3594;42.152;24.714;2023-06-22T09:03:02;63375.91;;;32.16;nan
7105;BME280;3594;42.152;24.714;2023-06-22T09:05:28;63374.53;;;31.96;nan
7105;BME280;3594;42.152;24.714;2023-06-22T09:07:53;63298.81;;;31.78;nan
7105;BME280;3594;42.152;24.714;2023-06-22T09:10:24;63275.94;;;31.77;nan
7105;BME280;3594;42.152;24.714;2023-06-22T09:12:49;63569.44;;;31.93;nan
7105;BME280;3594;42.152;24.714;2023-06-22T09:15:15;63244.22;;;31.77;nan
7105;BME280;3594;42.152;24.714;2023-06-22T09:17:40;63564.00;;;32.02;nan
7105;BME280;3594;42.152;24.714;2023-06-22T09:20:07;63288.59;;;31.88;nan
7105;BME280;3594;42.152;24.714;2023-06-22T09:22:35;63377.16;;;32.12;nan
7105;BME280;3594;42.152;24.714;2023-06-22T09:25:01;63394.69;;;32.58;nan
7105;BME280;3594;42.152;24.714;2023-06-22T09:27:26;63248.69;;;32.13;nan
7105;BME280;3594;42.152;24.714;2023-06-22T09:29:52;63351.56;;;31.99;nan
7105;BME280;3594;42.152;24.714;2023-06-22T09:32:17;63266.78;;;31.92;nan
7105;BME280;3594;42.152;24.714;2023-06-22T09:34:42;63315.75;;;31.95;nan
7105;BME280;3594;42.152;24.714;2023-06-22T09:37:08;63255.28;;;31.93;nan
7105;BME280;3594;42.152;24.714;2023-06-22T09:39:33;63290.34;;;31.89;nan
7105;BME280;3594;42.152;24.714;2023-06-22T09:41:59;63370.56;;;32.04;nan
7105;BME280;3594;42.152;24.714;2023-06-22T09:44:25;63412.28;;;31.76;nan
7105;BME280;3594;42.152;24.714;2023-06-22T09:46:51;63503.69;;;32.79;nan
7105;BME280;3594;42.152;24.714;2023-06-22T09:49:16;63447.63;;;32.85;nan
7105;BME280;3594;42.152;24.714;2023-06-22T09:51:42;63633.72;;;32.65;nan
7105;BME280;3594;42.152;24.714;2023-06-22T09:54:07;63343.63;;;32.27;nan
7105;BME280;3594;42.152;24.714;2023-06-22T09:56:33;63360.97;;;32.65;nan
7105;BME280;3594;42.152;24.714;2023-06-22T09:58:58;63441.31;;;32.92;nan
7105;BME280;3594;42.152;24.714;2023-06-22T10:01:23;63419.75;;;32.54;nan
7105;BME280;3594;42.152;24.714;2023-06-22T10:03:50;63413.06;;;32.78;nan
7105;BME280;3594;42.152;24.714;2023-06-22T10:06:15;63380.94;;;32.80;nan
7105;BME280;3594;42.152;24.714;2023-06-22T10:08:40;63422.91;;;32.99;nan
7105;BME280;3594;42.152;24.714;2023-06-22T10:11:06;63545.34;;;33.15;nan
7105;BME280;3594;42.152;24.714;2023-06-22T10:13:32;63368.72;;;32.35;nan
7105;BME280;3594;42.152;24.714;2023-06-22T10:15:57;63443.41;;;32.63;nan
7105;BME280;3594;42.152;24.714;2023-06-22T10:18:22;63391.28;;;32.38;nan
7105;BME280;3594;42.152;24.714;2023-06-22T10:20:49;63352.97;;;32.42;nan
7105;BME280;3594;42.152;24.714;2023-06-22T10:23:18;63520.63;;;32.84;nan
7105;BME280;3594;42.152;24.714;2023-06-22T10:25:44;63643.88;;;32.88;nan
7105;BME280;3594;42.152;24.714;2023-06-22T10:28:10;63529.69;;;33.29;nan
7105;BME280;3594;42.152;24.714;2023-06-22T10:30:35;63439.75;;;32.69;nan
7105;BME280;3594;42.152;24.714;2023-06-22T10:33:00;63309.13;;;32.04;nan
7105;BME280;3594;42.152;24.714;2023-06-22T10:35:26;63411.38;;;32.05;nan
7105;BME280;3594;42.152;24.714;2023-06-22T10:37:52;63426.31;;;32.51;nan
7105;BME280;3594;42.152;24.714;2023-06-22T10:40:18;63551.31;;;32.67;nan
7105;BME280;3594;42.152;24.714;2023-06-22T10:42:44;63494.72;;;33.13;nan
7105;BME280;3594;42.152;24.714;2023-06-22T10:45:10;63632.50;;;33.29;nan
7105;BME280;3594;42.152;24.714;2023-06-22T10:47:36;63538.84;;;33.42;nan
7105;BME280;3594;42.152;24.714;2023-06-22T10:50:02;63568.53;;;33.59;nan
7105;BME280;3594;42.152;24.714;2023-06-22T10:52:28;63653.91;;;33.48;nan
7105;BME280;3594;42.152;24.714;2023-06-22T10:54:53;63443.28;;;32.96;nan
7105;BME280;3594;42.152;24.714;2023-06-22T10:57:18;63490.31;;;33.11;nan
7105;BME280;3594;42.152;24.714;2023-06-22T10:59:44;63452.56;;;32.76;nan
7105;BME280;3594;42.152;24.714;2023-06-22T11:02:09;63657.13;;;32.56;nan
7105;BME280;3594;42.152;24.714;2023-06-22T11:04:35;63288.44;;;32.09;nan
7105;BME280;3594;42.152;24.714;2023-06-22T11:07:00;63271.63;;;31.98;nan
7105;BME280;3594;42.152;24.714;2023-06-22T11:09:26;63315.28;;;32.18;nan
7105;BME280;3594;42.152;24.714;2023-06-22T11:11:52;63210.69;;;32.03;nan
7105;BME280;3594;42.152;24.714;2023-06-22T11:14:20;63348.50;;;32.45;nan
7105;BME280;3594;42.152;24.714;2023-06-22T11:16:46;63447.69;;;32.69;nan
7105;BME280;3594;42.152;24.714;2023-06-22T11:19:12;63461.44;;;32.86;nan
7105;BME280;3594;42.152;24.714;2023-06-22T11:21:38;63621.56;;;33.59;nan
7105;BME280;3594;42.152;24.714;2023-06-22T11:24:03;63492.13;;;33.36;nan
7105;BME280;3594;42.152;24.714;2023-06-22T11:26:29;63658.56;;;33.52;nan
7105;BME280;3594;42.152;24.714;2023-06-22T11:28:55;63184.69;;;30.50;nan
7105;BME280;3594;42.152;24.714;2023-06-22T11:31:20;63301.47;;;32.18;nan
7105;BME280;3594;42.152;24.714;2023-06-22T11:33:46;63303.50;;;32.06;nan
7105;BME280;3594;42.152;24.714;2023-06-22T11:36:13;63264.50;;;31.62;nan
7105;BME280;3594;42.152;24.714;2023-06-22T11:38:40;63500.53;;;31.70;nan
7105;BME280;3594;42.152;24.714;2023-06-22T11:41:09;63302.78;;;31.98;nan
7105;BME280;3594;42.152;24.714;2023-06-22T11:43:35;63421.94;;;32.21;nan
7105;BME280;3594;42.152;24.714;2023-06-22T11:46:05;63409.75;;;32.55;nan
7105;BME280;3594;42.152;24.714;2023-06-22T11:48:30;63446.19;;;32.42;nan
7105;BME280;3594;42.152;24.714;2023-06-22T11:50:56;63224.38;;;32.08;nan
7105;BME280;3594;42.152;24.714;2023-06-22T11:53:24;63303.09;;;32.24;nan
7105;BME280;3594;42.152;24.714;2023-06-22T11:55:49;63474.63;;;32.63;nan
7105;BME280;3594;42.152;24.714;2023-06-22T11:58:15;63390.75;;;32.22;nan
7105;BME280;3594;42.152;24.714;2023-06-22T12:00:41;63377.53;;;32.22;nan
7105;BME280;3594;42.152;24.714;2023-06-22T12:03:07;63363.09;;;32.37;nan
7105;BME280;3594;42.152;24.714;2023-06-22T12:05:34;63274.44;;;32.17;nan
7105;BME280;3594;42.152;24.714;2023-06-22T12:07:59;63354.31;;;32.34;nan
7105;BME280;3594;42.152;24.714;2023-06-22T12:10:25;63477.19;;;32.51;nan
7105;BME280;3594;42.152;24.714;2023-06-22T12:12:51;63408.59;;;32.54;nan
7105;BME280;3594;42.152;24.714;2023-06-22T12:15:17;63417.22;;;32.50;nan
7105;BME280;3594;42.152;24.714;2023-06-22T12:17:42;63358.72;;;32.35;nan
7105;BME280;3594;42.152;24.714;2023-06-22T12:20:08;63415.28;;;32.29;nan
7105;BME280;3594;42.152;24.714;2023-06-22T12:22:34;63268.53;;;32.05;nan
7105;BME280;3594;42.152;24.714;2023-06-22T12:25:00;63286.13;;;32.07;nan
7105;BME280;3594;42.152;24.714;2023-06-22T12:27:26;63174.00;;;31.50;nan
7105;BME280;3594;42.152;24.714;2023-06-22T12:29:52;63245.44;;;31.62;nan
7105;BME280;3594;42.152;24.714;2023-06-22T12:32:17;63214.69;;;31.44;nan
7105;BME280;3594;42.152;24.714;2023-06-22T12:34:43;63325.31;;;31.46;nan
7105;BME280;3594;42.152;24.714;2023-06-22T12:37:10;63265.41;;;32.00;nan
7105;BME280;3594;42.152;24.714;2023-06-22T12:39:35;63326.00;;;32.25;nan
7105;BME280;3594;42.152;24.714;2023-06-22T12:42:01;63411.34;;;32.77;nan
7105;BME280;3594;42.152;24.714;2023-06-22T12:44:26;63603.88;;;33.18;nan
7105;BME280;3594;42.152;24.714;2023-06-22T12:46:52;63450.19;;;32.90;nan
7105;BME280;3594;42.152;24.714;2023-06-22T12:49:17;63476.03;;;33.06;nan
7105;BME280;3594;42.152;24.714;2023-06-22T12:51:44;63507.72;;;33.10;nan
7105;BME280;3594;42.152;24.714;2023-06-22T12:54:10;63510.91;;;32.99;nan
7105;BME280;3594;42.152;24.714;2023-06-22T12:56:37;63354.78;;;32.67;nan
7105;BME280;3594;42.152;24.714;2023-06-22T12:59:04;63388.69;;;32.62;nan
7105;BME280;3594;42.152;24.714;2023-06-22T13:01:30;63657.34;;;33.07;nan
7105;BME280;3594;42.152;24.714;2023-06-22T13:03:57;63465.44;;;33.06;nan
7105;BME280;3594;42.152;24.714;2023-06-22T13:06:22;63467.34;;;32.98;nan
7105;BME280;3594;42.152;24.714;2023-06-22T13:08:49;63513.81;;;33.02;nan
7105;BME280;3594;42.152;24.714;2023-06-22T13:11:15;63478.22;;;32.73;nan
7105;BME280;3594;42.152;24.714;2023-06-22T13:13:40;63340.56;;;32.57;nan
7105;BME280;3594;42.152;24.714;2023-06-22T13:16:07;63535.94;;;32.84;nan
7105;BME280;3594;42.152;24.714;2023-06-22T13:18:33;63403.50;;;32.44;nan
7105;BME280;3594;42.152;24.714;2023-06-22T13:21:01;63434.16;;;32.55;nan
7105;BME280;3594;42.152;24.714;2023-06-22T13:23:26;63354.75;;;32.55;nan
7105;BME280;3594;42.152;24.714;2023-06-22T13:25:52;63456.25;;;32.81;nan
7105;BME280;3594;42.152;24.714;2023-06-22T13:28:17;63398.13;;;32.61;nan
7105;BME280;3594;42.152;24.714;2023-06-22T13:30:43;63398.34;;;32.52;nan
7105;BME280;3594;42.152;24.714;2023-06-22T13:33:11;63430.75;;;31.92;nan